Terminal Aerodrome Forecast
Issued by NWS

Home | Current Version | Previous Version | Text Only | Print | Product List | Glossary On
Versions: 1 2 3 4 5 6 7 8 9 10 11 12
618
FTUS44 KEPZ 081136
TAFDMN
TAF
KDMN 081136Z 0812/0912 07011KT P6SM FEW050 SCT250
     FM081700 09010KT P6SM SCT250=

USA.gov is the U.S. government's official web portal to all federal, state and local government web resources and services.